createdAt,value
2019-01-16T00:03:44.389Z,2.43
2019-01-16T00:08:48.613Z,2.60
2019-01-16T00:13:44.170Z,3.00
2019-01-16T00:18:57.313Z,3.57
2019-01-16T00:23:59.007Z,3.47
2019-01-16T00:29:00.144Z,3.43
2019-01-16T00:33:55.565Z,3.70
2019-01-16T00:38:50.951Z,3.40
2019-01-16T00:43:46.278Z,3.57
2019-01-16T00:48:48.761Z,4.40
2019-01-16T00:53:53.088Z,3.83
2019-01-16T00:58:54.393Z,4.07
2019-01-16T01:03:50.298Z,4.50
2019-01-16T01:08:46.719Z,4.37
2019-01-16T01:13:59.534Z,4.40
2019-01-16T01:19:12.884Z,4.30
2019-01-16T01:24:08.818Z,4.70
2019-01-16T01:29:10.458Z,5.10
2019-01-16T01:34:06.998Z,4.43
2019-01-16T01:39:17.163Z,4.43
2019-01-16T01:44:27.812Z,5.10
2019-01-16T01:49:32.049Z,4.40
2019-01-16T01:54:43.919Z,4.60
2019-01-16T01:59:42.299Z,4.33
2019-01-16T02:04:52.869Z,4.40
2019-01-16T02:09:58.110Z,4.23
2019-01-16T02:15:06.672Z,4.63
2019-01-16T02:20:18.736Z,4.33
2019-01-16T02:25:14.445Z,3.60
2019-01-16T02:30:25.897Z,3.90
2019-01-16T02:35:24.216Z,4.10
2019-01-16T02:40:38.662Z,3.87
2019-01-16T02:45:40.170Z,3.30
2019-01-16T02:50:41.984Z,3.80
2019-01-16T02:55:41.477Z,4.20
2019-01-16T03:00:56.515Z,3.67
2019-01-16T03:05:57.185Z,3.67
2019-01-16T03:10:52.627Z,4.50
2019-01-16T03:15:48.500Z,4.33
2019-01-16T03:20:56.235Z,4.07
2019-01-16T03:25:53.394Z,3.60
2019-01-16T03:30:52.554Z,3.50
2019-01-16T03:36:05.440Z,3.43
2019-01-16T03:41:00.960Z,4.50
2019-01-16T03:45:59.072Z,4.13
2019-01-16T03:51:13.953Z,4.37
2019-01-16T03:56:28.635Z,4.53
2019-01-16T04:01:40.705Z,3.90
2019-01-16T04:06:38.897Z,3.90
2019-01-16T04:11:40.673Z,3.70
2019-01-16T04:16:37.515Z,4.63
2019-01-16T04:21:35.685Z,4.13
2019-01-16T04:26:43.554Z,3.30
2019-01-16T04:31:45.246Z,3.60
2019-01-16T04:36:50.380Z,3.80
2019-01-16T04:42:03.005Z,3.90
2019-01-16T04:47:15.027Z,3.43
2019-01-16T04:52:13.682Z,3.30
2019-01-16T04:57:18.294Z,3.00
2019-01-16T05:02:25.679Z,3.87
2019-01-16T05:07:38.236Z,3.00
2019-01-16T05:12:46.937Z,3.63
2019-01-16T05:17:42.438Z,3.73
2019-01-16T05:22:54.804Z,10.23
2019-01-16T05:28:05.982Z,8.20
2019-01-16T05:33:15.033Z,3.27
2019-01-16T05:38:23.473Z,3.00
2019-01-16T05:43:21.751Z,2.97
2019-01-16T05:48:29.771Z,3.13
2019-01-16T05:53:32.469Z,2.93
2019-01-16T05:58:33.533Z,3.63
2019-01-16T06:03:36.125Z,3.93
2019-01-16T06:08:51.336Z,3.30
2019-01-16T06:14:05.932Z,2.30
2019-01-16T06:19:01.291Z,3.00
2019-01-16T06:23:56.749Z,2.30
2019-01-16T06:29:01.716Z,2.10
2019-01-16T06:34:14.247Z,2.27
2019-01-16T06:39:13.413Z,2.57
2019-01-16T06:44:11.603Z,2.10
2019-01-16T06:49:16.054Z,2.90
2019-01-16T06:54:14.760Z,3.33
2019-01-16T06:59:11.584Z,2.70
2019-01-16T07:04:24.045Z,2.77
2019-01-16T07:09:19.398Z,2.33
2019-01-16T07:14:21.617Z,2.83
2019-01-16T07:19:17.640Z,2.83
2019-01-16T07:24:31.730Z,2.40
2019-01-16T07:29:31.100Z,2.40
2019-01-16T07:34:46.056Z,3.07
2019-01-16T07:39:45.674Z,3.37
2019-01-16T07:44:57.491Z,2.10
2019-01-16T07:50:09.307Z,2.23
2019-01-16T07:55:17.531Z,2.63
2019-01-16T08:00:32.458Z,3.90
2019-01-16T08:05:29.613Z,3.23
2019-01-16T08:10:30.551Z,2.90
2019-01-16T08:15:38.518Z,2.73
2019-01-16T08:20:49.598Z,2.90
2019-01-16T08:25:49.007Z,2.80
2019-01-16T08:30:48.900Z,2.67
2019-01-16T08:36:01.135Z,2.73
2019-01-16T08:40:59.776Z,2.40
2019-01-16T08:45:56.265Z,1.80
2019-01-16T08:51:11.158Z,2.20
2019-01-16T08:56:08.813Z,2.30
2019-01-16T09:01:20.177Z,3.17
2019-01-16T09:06:21.529Z,2.60
2019-01-16T09:11:23.264Z,2.50
2019-01-16T09:16:32.899Z,2.10
2019-01-16T09:21:45.285Z,2.30
2019-01-16T09:26:45.381Z,2.20
2019-01-16T09:31:43.488Z,1.70
2019-01-16T09:36:40.901Z,1.90
2019-01-16T09:41:39.354Z,1.60
2019-01-16T09:46:35.277Z,1.33
2019-01-16T09:51:32.239Z,1.60
2019-01-16T09:56:36.654Z,1.40
2019-01-16T10:01:41.838Z,1.97
2019-01-16T10:06:40.272Z,1.40
2019-01-16T10:11:47.221Z,1.40
2019-01-16T10:16:51.345Z,1.70
2019-01-16T10:22:07.088Z,1.90
2019-01-16T10:27:18.066Z,1.63
2019-01-16T10:32:21.457Z,1.60
2019-01-16T10:37:35.156Z,1.50
2019-01-16T10:42:52.164Z,1.60
2019-01-16T10:47:50.464Z,2.07
2019-01-16T10:52:46.813Z,2.30
2019-01-16T10:57:48.234Z,2.47
2019-01-16T11:03:02.020Z,2.57
2019-01-16T11:08:10.356Z,1.97
2019-01-16T11:13:19.386Z,2.00
2019-01-16T11:18:18.298Z,1.40
2019-01-16T11:23:21.187Z,1.30
2019-01-16T11:28:34.380Z,1.83
2019-01-16T11:33:30.881Z,1.50
2019-01-16T11:38:43.211Z,1.83
2019-01-16T11:43:45.508Z,2.30
2019-01-16T11:48:55.559Z,2.20
2019-01-16T11:53:51.291Z,2.07
2019-01-16T11:58:47.136Z,2.40
2019-01-16T12:03:44.368Z,1.97
2019-01-16T12:08:57.549Z,2.10
2019-01-16T12:13:59.823Z,2.00
2019-01-16T12:18:58.258Z,2.37
2019-01-16T12:23:56.955Z,2.80
2019-01-16T12:28:58.792Z,2.80
2019-01-16T12:33:59.778Z,2.30
2019-01-16T12:39:14.417Z,2.93
2019-01-16T12:44:14.299Z,2.60
2019-01-16T12:49:10.400Z,2.57
2019-01-16T12:54:12.143Z,2.63
2019-01-16T12:59:10.936Z,2.70
2019-01-16T13:04:10.409Z,2.43
2019-01-16T13:09:10.026Z,3.07
2019-01-16T13:14:11.493Z,2.37
2019-01-16T13:19:24.430Z,1.57
2019-01-16T13:24:20.835Z,2.00
2019-01-16T13:29:19.999Z,2.10
2019-01-16T13:34:32.319Z,1.97
2019-01-16T13:39:37.059Z,2.67
2019-01-16T13:44:34.183Z,2.50
2019-01-16T13:49:32.320Z,2.30
2019-01-16T13:54:44.944Z,1.80
2019-01-16T13:59:40.344Z,2.60
2019-01-16T14:04:55.770Z,2.43
2019-01-16T14:10:03.979Z,2.60
2019-01-16T14:15:12.236Z,2.40
2019-01-16T14:20:22.244Z,2.63
2019-01-16T14:25:24.055Z,2.93
2019-01-16T14:30:41.706Z,2.63
2019-01-16T14:35:54.236Z,2.23
2019-01-16T14:40:59.479Z,2.77
2019-01-16T14:46:00.038Z,2.53
2019-01-16T14:50:57.649Z,2.50
2019-01-16T14:56:05.782Z,2.60
2019-01-16T15:01:19.403Z,3.23
2019-01-16T15:06:17.645Z,3.10
2019-01-16T15:11:13.101Z,3.57
2019-01-16T15:16:08.507Z,2.97
2019-01-16T15:21:05.139Z,2.87
2019-01-16T15:26:01.226Z,3.40
2019-01-16T15:31:11.146Z,3.43
2019-01-16T15:36:11.138Z,3.53
2019-01-16T15:41:19.785Z,3.60
2019-01-16T15:46:16.807Z,5.30
2019-01-16T15:51:29.251Z,4.57
2019-01-16T15:56:30.919Z,4.30
2019-01-16T16:01:44.654Z,4.83
2019-01-16T16:06:43.046Z,4.30
2019-01-16T16:11:56.646Z,6.10
2019-01-16T16:16:54.147Z,6.70
2019-01-16T16:22:12.171Z,6.10
2019-01-16T16:27:16.485Z,5.27
2019-01-16T16:32:17.074Z,6.00
2019-01-16T16:37:12.773Z,6.87
2019-01-16T16:42:11.175Z,7.60
2019-01-16T16:52:26.090Z,7.53
2019-01-16T16:57:30.025Z,6.53
2019-01-16T17:02:26.460Z,8.03
2019-01-16T17:07:37.733Z,8.03
2019-01-16T17:12:35.693Z,7.67
2019-01-16T17:17:43.575Z,8.43
2019-01-16T17:22:51.923Z,9.30
2019-01-16T17:28:04.200Z,8.23
2019-01-16T17:33:13.656Z,8.87
2019-01-16T17:38:12.255Z,9.00
2019-01-16T17:43:20.885Z,8.27
2019-01-16T17:48:19.900Z,9.57
2019-01-16T17:53:31.656Z,8.33
2019-01-16T17:58:47.127Z,7.73
2019-01-16T18:03:50.937Z,9.07
2019-01-16T18:08:51.908Z,8.47
2019-01-16T18:13:50.729Z,7.77
2019-01-16T18:19:06.301Z,7.63
2019-01-16T18:24:11.239Z,8.27
2019-01-16T18:29:12.109Z,8.33
2019-01-16T18:34:28.301Z,10.80
2019-01-16T18:39:25.038Z,8.13
2019-01-16T18:44:30.380Z,8.17
2019-01-16T18:49:42.367Z,7.60
2019-01-16T18:54:53.217Z,7.17
2019-01-16T18:59:50.202Z,7.90
2019-01-16T19:04:51.383Z,8.07
2019-01-16T19:09:52.806Z,9.90
2019-01-16T19:14:57.641Z,17.03
2019-01-16T19:19:56.180Z,12.80
2019-01-16T19:25:06.458Z,10.97
2019-01-16T19:30:03.908Z,8.63
2019-01-16T19:35:16.575Z,9.83
2019-01-16T19:40:30.386Z,15.53
2019-01-16T19:45:42.525Z,11.50
2019-01-16T19:50:47.150Z,10.80
2019-01-16T19:55:44.835Z,10.63
2019-01-16T20:00:43.832Z,10.17
2019-01-16T20:05:41.103Z,12.23
2019-01-16T20:10:56.292Z,12.50
2019-01-16T20:16:04.916Z,10.90
2019-01-16T20:21:21.182Z,10.17
2019-01-16T20:26:32.020Z,11.73
2019-01-16T20:31:44.280Z,13.27
2019-01-16T20:36:44.346Z,13.50
2019-01-16T20:41:43.495Z,14.13
2019-01-16T20:46:41.020Z,13.33
2019-01-16T20:51:42.312Z,13.17
2019-01-16T20:56:39.706Z,14.33
2019-01-16T21:01:52.831Z,13.43
2019-01-16T21:06:50.922Z,14.20
2019-01-16T21:12:03.534Z,14.77
2019-01-16T21:17:17.000Z,17.70
2019-01-16T21:22:18.771Z,16.13
2019-01-16T21:27:31.006Z,17.57
2019-01-16T21:32:26.932Z,12.83
2019-01-16T21:37:25.855Z,11.20
2019-01-16T21:42:30.398Z,12.13
2019-01-16T21:47:40.051Z,12.83
2019-01-16T21:52:41.772Z,11.10
2019-01-16T21:57:43.820Z,11.13
2019-01-16T22:02:39.540Z,10.33
2019-01-16T22:07:37.838Z,11.90
2019-01-16T22:12:36.044Z,11.43
2019-01-16T22:17:32.621Z,11.00
2019-01-16T22:22:47.035Z,10.50
2019-01-16T22:27:45.205Z,11.13
2019-01-16T22:32:40.550Z,11.90
2019-01-16T22:37:37.443Z,12.50
2019-01-16T22:42:38.689Z,14.77
2019-01-16T22:47:43.635Z,11.77
2019-01-16T22:52:51.792Z,10.47
2019-01-16T22:57:49.898Z,11.60
2019-01-16T23:02:51.722Z,11.33
2019-01-16T23:07:53.347Z,11.43
2019-01-16T23:12:49.030Z,11.90
2019-01-16T23:17:58.173Z,11.20
2019-01-16T23:22:54.420Z,10.57
2019-01-16T23:27:59.059Z,9.77
2019-01-16T23:33:11.696Z,10.80
2019-01-16T23:38:08.755Z,8.37
2019-01-16T23:43:23.629Z,9.87
2019-01-16T23:48:19.997Z,9.10
2019-01-16T23:53:31.687Z,9.13
2019-01-16T23:58:45.436Z,10.50
